Time;durP1;ratioP1;P1;durP2;ratioP2;P2;SDS_P1;SDS_P2;PMS_P1;PMS_P2;Temp;Humidity;BMP_temperature;BMP_pressure;BME280_temperature;BME280_humidity;BME280_pressure;Samples;Min_cycle;Max_cycle;Signal;HPM_P1;HPM_P2
2022/03/13 00:01:04;;;;;;;181.60;102.50;;;;;;;-0.06;40.82;101556.36;108379;1273;23122;-76
2022/03/13 00:03:47;;;;;;;177.80;101.10;;;;;;;-0.11;40.97;101557.95;108712;1270;21981;-76
2022/03/13 00:06:34;;;;;;;222.50;119.20;;;;;;;-0.17;41.02;101553.56;108748;1270;22117;-76
2022/03/13 00:09:14;;;;;;;197.40;107.80;;;;;;;-0.23;41.26;101554.34;108758;1270;21991;-77
2022/03/13 00:11:46;;;;;;;200.00;113.00;;;;;;;-0.28;41.45;101551.29;108695;1273;23639;-76
2022/03/13 00:14:25;;;;;;;210.70;114.50;;;;;;;-0.32;41.51;101553.17;109070;1267;22084;-76
2022/03/13 00:16:57;;;;;;;325.20;188.00;;;;;;;-0.36;41.61;101553.19;108978;1267;22005;-77
2022/03/13 00:19:31;;;;;;;333.60;188.40;;;;;;;-0.42;41.83;101553.28;109689;1259;21970;-77
2022/03/13 00:22:10;;;;;;;380.70;203.40;;;;;;;-0.47;42.08;101553.18;109103;1267;23062;-78
2022/03/13 00:24:41;;;;;;;285.20;147.50;;;;;;;-0.54;42.45;101554.82;108684;1270;22002;-77
2022/03/13 00:27:16;;;;;;;243.90;134.60;;;;;;;-0.59;42.63;101556.80;108650;1273;23062;-77
2022/03/13 00:29:58;;;;;;;258.50;136.10;;;;;;;-0.66;42.99;101556.23;108661;1270;23653;-76
2022/03/13 00:32:31;;;;;;;230.30;132.50;;;;;;;-0.71;43.24;101552.83;108633;1271;23138;-77
2022/03/13 00:35:01;;;;;;;249.20;132.10;;;;;;;-0.74;43.50;101550.53;108317;1276;22035;-76
2022/03/13 00:37:33;;;;;;;235.90;133.10;;;;;;;-0.78;43.64;101549.13;108176;1281;23062;-76
2022/03/13 00:40:04;;;;;;;234.30;127.10;;;;;;;-0.80;43.83;101551.48;108302;1276;22296;-77
2022/03/13 00:42:37;;;;;;;218.30;120.80;;;;;;;-0.83;43.89;101548.65;108007;1280;22967;-78
2022/03/13 00:45:20;;;;;;;203.60;115.20;;;;;;;-0.85;44.09;101553.07;107902;1282;24454;-77
2022/03/13 00:48:04;;;;;;;207.80;111.80;;;;;;;-0.89;44.08;101547.87;107856;1283;22779;-77
2022/03/13 00:50:36;;;;;;;193.80;109.90;;;;;;;-0.91;44.15;101549.73;107787;1279;22003;-77
2022/03/13 00:53:09;;;;;;;182.10;104.20;;;;;;;-0.92;44.29;101550.94;108129;1277;22070;-76
2022/03/13 00:55:52;;;;;;;184.90;104.70;;;;;;;-0.91;44.39;101547.30;108250;1274;22097;-77
2022/03/13 00:58:33;;;;;;;;;;;;;;;;;;;;;
2022/03/13 01:01:05;;;;;;;176.70;101.90;;;;;;;-0.92;44.36;101549.91;108169;1279;21993;-75
2022/03/13 01:03:55;;;;;;;183.40;104.30;;;;;;;-0.92;44.43;101545.42;108365;1276;22075;-76
2022/03/13 01:06:29;;;;;;;200.50;111.30;;;;;;;-0.93;44.37;101545.29;108186;1279;21984;-77
2022/03/13 01:09:09;;;;;;;202.90;113.00;;;;;;;-0.94;44.27;101548.09;108228;1279;22986;-77
2022/03/13 01:11:47;;;;;;;184.10;104.90;;;;;;;-0.95;44.37;101550.20;108305;1276;21998;-76
2022/03/13 01:14:20;;;;;;;173.20;102.40;;;;;;;-0.95;44.42;101548.80;108439;1273;21974;-75
2022/03/13 01:17:16;;;;;;;166.90;100.80;;;;;;;-0.94;44.38;101542.52;108548;1270;22060;-75
2022/03/13 01:19:48;;;;;;;;;;;;;;;-0.95;44.31;101542.75;109030;1265;23945;-76
2022/03/13 01:22:18;;;;;;;161.70;90.50;;;;;;;-1.01;44.41;101536.80;108592;1271;23692;-76
2022/03/13 01:24:53;;;;;;;165.00;95.60;;;;;;;-1.02;44.33;101533.73;108710;1270;23806;-76
2022/03/13 01:27:23;;;;;;;161.40;94.00;;;;;;;-1.02;44.18;101530.77;108728;1270;23704;-75
2022/03/13 01:29:56;;;;;;;153.10;88.20;;;;;;;-1.02;44.11;101525.23;108651;1273;22333;-75
2022/03/13 01:32:26;;;;;;;166.70;97.50;;;;;;;-1.02;44.15;101524.02;108898;1267;22115;-75
2022/03/13 01:34:58;;;;;;;156.70;92.30;;;;;;;-1.02;44.03;101523.88;108861;1267;22984;-75
2022/03/13 01:37:40;;;;;;;139.40;85.90;;;;;;;-1.03;44.07;101527.00;108915;1267;22850;-75
2022/03/13 01:40:33;;;;;;;141.20;84.30;;;;;;;-1.03;44.07;101525.84;109114;1264;21972;-76
2022/03/13 01:43:06;;;;;;;142.50;85.70;;;;;;;-1.05;44.13;101522.96;109566;1263;23587;-76
2022/03/13 01:45:44;;;;;;;158.70;95.40;;;;;;;-1.06;44.18;101516.59;108912;1270;23072;-75
2022/03/13 01:48:27;;;;;;;154.20;90.80;;;;;;;-1.06;44.21;101520.09;108764;1270;23673;-76
2022/03/13 01:51:12;;;;;;;158.10;95.00;;;;;;;-1.09;44.30;101519.16;108847;1270;21982;-75
2022/03/13 01:54:01;;;;;;;164.80;96.80;;;;;;;-1.11;44.47;101520.63;108868;1268;23039;-76
2022/03/13 01:56:36;;;;;;;173.30;101.60;;;;;;;-1.14;44.52;101519.70;108505;1274;24311;-75
2022/03/13 01:59:17;;;;;;;164.90;97.60;;;;;;;-1.16;44.61;101517.70;108299;1279;22002;-76
2022/03/13 02:01:47;;;;;;;164.30;93.00;;;;;;;-1.19;44.78;101517.31;108090;1279;22006;-77
2022/03/13 02:04:31;;;;;;;159.40;95.60;;;;;;;-1.21;44.84;101509.98;107940;1282;22317;-76
2022/03/13 02:07:04;;;;;;;154.80;95.60;;;;;;;-1.24;45.01;101511.46;108065;1285;23843;-77
2022/03/13 02:09:37;;;;;;;156.70;93.40;;;;;;;-1.26;45.22;101515.71;107646;1286;22041;-76
2022/03/13 02:12:10;;;;;;;136.00;84.40;;;;;;;-1.30;45.32;101515.51;108002;1285;22114;-77
2022/03/13 02:14:42;;;;;;;137.30;84.10;;;;;;;-1.32;45.56;101517.16;107999;1279;22021;-76
2022/03/13 02:17:47;;;;;;;141.30;85.20;;;;;;;-1.33;45.72;101515.83;108339;1273;23059;-76
2022/03/13 02:20:28;;;;;;;121.80;77.20;;;;;;;-1.35;45.95;101515.21;108345;1276;23633;-77
2022/03/13 02:23:16;;;;;;;125.70;75.30;;;;;;;-1.37;46.01;101519.44;108583;1270;21999;-76
2022/03/13 02:25:58;;;;;;;122.10;74.20;;;;;;;-1.38;46.20;101522.27;108790;1271;23770;-77
2022/03/13 02:28:56;;;;;;;120.70;74.70;;;;;;;-1.40;46.32;101517.66;108772;1268;23132;-76
2022/03/13 02:31:34;;;;;;;118.50;75.00;;;;;;;-1.41;46.43;101517.87;108460;1273;22051;-77
2022/03/13 02:34:18;;;;;;;147.30;88.60;;;;;;;-1.41;46.55;101518.42;108819;1270;22775;-76
2022/03/13 02:37:02;;;;;;;150.40;84.70;;;;;;;-1.45;46.62;101510.42;108752;1270;23608;-76
2022/03/13 02:39:37;;;;;;;138.60;84.90;;;;;;;-1.48;46.71;101509.89;109146;1266;23049;-76
2022/03/13 02:42:08;;;;;;;140.90;82.70;;;;;;;-1.52;46.85;101506.06;108726;1270;22002;-76
2022/03/13 02:44:49;;;;;;;128.00;78.80;;;;;;;-1.54;46.98;101505.78;108542;1270;22464;-75
2022/03/13 02:47:21;;;;;;;104.00;66.40;;;;;;;-1.56;47.21;101509.83;108708;1270;22002;-76
2022/03/13 02:49:51;;;;;;;113.80;68.80;;;;;;;-1.57;47.36;101507.80;108848;1267;23599;-76
2022/03/13 02:52:37;;;;;;;112.50;71.20;;;;;;;-1.58;47.56;101507.16;108769;1273;23782;-76
2022/03/13 02:55:07;;;;;;;121.50;75.30;;;;;;;-1.61;47.61;101507.46;108533;1273;21973;-77
2022/03/13 02:57:40;;;;;;;;;;;;;;;-1.63;47.76;101512.39;108677;1273;23153;-76
2022/03/13 03:00:18;;;;;;;109.50;67.80;;;;;;;-1.69;48.01;101515.56;108466;1273;22093;-75
2022/03/13 03:02:48;;;;;;;110.80;65.80;;;;;;;-1.71;48.12;101520.98;108426;1276;21996;-75
2022/03/13 03:05:18;;;;;;;94.10;60.60;;;;;;;-1.71;48.17;101521.66;108412;1275;22068;-75
2022/03/13 03:07:49;;;;;;;85.20;56.40;;;;;;;-1.71;48.25;101519.42;108384;1276;22028;-76
2022/03/13 03:10:22;;;;;;;90.80;59.30;;;;;;;-1.72;48.35;101517.05;108235;1276;22770;-76
2022/03/13 03:12:51;;;;;;;98.30;60.00;;;;;;;-1.72;48.38;101516.55;108391;1276;22381;-75
2022/03/13 03:15:27;;;;;;;84.90;55.90;;;;;;;-1.73;48.38;101518.66;108392;1276;23043;-75
2022/03/13 03:17:56;;;;;;;97.50;62.40;;;;;;;-1.76;48.46;101512.88;108449;1273;24579;-78
2022/03/13 03:20:42;;;;;;;216.10;124.00;;;;;;;-1.77;48.57;101512.23;108681;1267;22780;-75
2022/03/13 03:23:24;;;;;;;198.00;100.60;;;;;;;-1.79;48.62;101512.83;109130;1267;22931;-76
2022/03/13 03:25:59;;;;;;;120.10;69.60;;;;;;;-1.79;48.68;101514.40;108909;1267;22004;-75
2022/03/13 03:28:45;;;;;;;102.60;63.80;;;;;;;-1.81;48.69;101513.08;109157;1263;22101;-76
2022/03/13 03:31:19;;;;;;;88.10;56.20;;;;;;;-1.83;48.71;101515.78;108909;1270;22031;-76
2022/03/13 03:33:52;;;;;;;88.20;57.40;;;;;;;-1.86;48.84;101515.04;108765;1270;21973;-75
2022/03/13 03:36:26;;;;;;;85.70;55.30;;;;;;;-1.88;48.94;101518.20;108753;1270;22785;-76
2022/03/13 03:38:57;;;;;;;84.60;56.30;;;;;;;-1.91;49.06;101515.02;108528;1270;354454;-75
2022/03/13 03:41:27;;;;;;;86.90;57.70;;;;;;;-1.92;49.13;101509.52;108761;1270;22876;-75
2022/03/13 03:44:00;;;;;;;93.20;55.90;;;;;;;-1.93;49.22;101509.39;108884;1268;23055;-75
2022/03/13 03:46:46;;;;;;;;;;;;;;;;;;;;;
2022/03/13 03:49:36;;;;;;;92.00;56.70;;;;;;;-1.97;49.24;101515.25;109431;1259;22294;-76
2022/03/13 03:52:19;;;;;;;83.00;52.30;;;;;;;-1.99;49.42;101512.38;109793;1259;21973;-76
2022/03/13 03:54:54;;;;;;;83.70;54.40;;;;;;;-1.99;49.47;101512.55;109620;1259;23691;-76
2022/03/13 03:57:34;;;;;;;77.50;51.60;;;;;;;-1.97;49.56;101516.80;109218;1264;23670;-76
2022/03/13 04:00:09;;;;;;;78.50;52.50;;;;;;;-1.97;49.51;101515.75;109183;1264;21970;-76
2022/03/13 04:02:43;;;;;;;79.50;52.30;;;;;;;-1.97;49.53;101517.16;109253;1264;22437;-76
2022/03/13 04:05:12;;;;;;;82.20;54.80;;;;;;;-1.99;49.53;101514.98;108704;1270;22098;-76
2022/03/13 04:07:48;;;;;;;85.80;53.60;;;;;;;-1.99;49.66;101509.11;108665;1270;22050;-77
2022/03/13 04:10:35;;;;;;;87.70;56.20;;;;;;;-2.00;49.72;101508.80;108835;1270;22779;-77
2022/03/13 04:13:08;;;;;;;88.70;55.50;;;;;;;-2.01;49.76;101508.85;108396;1276;23133;-77
2022/03/13 04:15:44;;;;;;;91.00;59.30;;;;;;;-2.03;49.77;101511.15;108441;1272;21985;-77
2022/03/13 04:18:16;;;;;;;88.20;55.80;;;;;;;-2.03;49.88;101510.83;108495;1273;22012;-76
2022/03/13 04:20:50;;;;;;;79.00;55.10;;;;;;;-2.03;49.84;101509.80;108403;1276;22406;-77
2022/03/13 04:23:25;;;;;;;79.50;55.10;;;;;;;-2.05;49.93;101508.84;108174;1276;21990;-77
2022/03/13 04:26:02;;;;;;;77.40;54.30;;;;;;;-2.06;50.06;101516.98;108414;1276;22058;-76
2022/03/13 04:28:38;;;;;;;82.00;55.60;;;;;;;-2.08;50.11;101515.15;108417;1273;22771;-76
2022/03/13 04:31:12;;;;;;;83.90;55.60;;;;;;;-2.10;50.26;101514.88;108550;1270;21974;-76
2022/03/13 04:33:48;;;;;;;87.30;55.90;;;;;;;-2.11;50.23;101513.88;108750;1270;22789;-77
2022/03/13 04:36:23;;;;;;;84.80;53.20;;;;;;;-2.10;50.28;101517.84;108488;1273;21997;-75
2022/03/13 04:38:53;;;;;;;83.20;54.20;;;;;;;-2.10;50.36;101515.95;108489;1273;23847;-75
2022/03/13 04:41:23;;;;;;;81.10;53.90;;;;;;;-2.10;50.42;101522.85;108331;1273;23034;-77
2022/03/13 04:43:56;;;;;;;89.90;55.90;;;;;;;-2.11;50.51;101524.94;108486;1273;23806;-76
2022/03/13 04:46:32;;;;;;;83.20;52.60;;;;;;;-2.11;50.42;101527.73;108679;1270;22059;-77
2022/03/13 04:49:09;;;;;;;89.20;56.80;;;;;;;-2.13;50.44;101528.77;108731;1270;22348;-77
2022/03/13 04:51:41;;;;;;;90.00;58.80;;;;;;;-2.14;50.49;101530.75;108489;1273;23539;-77
2022/03/13 04:54:14;;;;;;;88.80;57.30;;;;;;;-2.16;50.49;101532.02;108462;1276;21984;-77
2022/03/13 04:56:45;;;;;;;89.90;58.70;;;;;;;-2.17;50.58;101535.02;108246;1279;23611;-76
2022/03/13 04:59:15;;;;;;;96.70;62.70;;;;;;;-2.19;50.59;101536.96;108387;1273;22039;-77
2022/03/13 05:01:49;;;;;;;93.10;58.50;;;;;;;-2.22;50.70;101540.86;108698;1270;22786;-77
2022/03/13 05:04:26;;;;;;;96.30;62.20;;;;;;;-2.22;50.82;101545.36;108857;1267;23053;-76
2022/03/13 05:06:59;;;;;;;108.80;62.80;;;;;;;-2.22;50.77;101548.14;108865;1267;23760;-77
2022/03/13 05:09:30;;;;;;;114.00;68.80;;;;;;;-2.22;50.81;101546.57;108978;1264;22052;-77
2022/03/13 05:12:05;;;;;;;118.60;68.70;;;;;;;-2.20;50.97;101549.45;108707;1270;23876;-77
2022/03/13 05:14:35;;;;;;;111.30;69.10;;;;;;;-2.19;51.01;101549.93;108737;1267;21976;-76
2022/03/13 05:17:10;;;;;;;116.10;69.40;;;;;;;-2.18;50.99;101551.45;108949;1267;22011;-77
2022/03/13 05:19:45;;;;;;;112.40;67.60;;;;;;;-2.17;51.11;101554.70;108860;1267;22062;-77
2022/03/13 05:22:17;;;;;;;100.80;62.00;;;;;;;-2.15;51.13;101555.45;108916;1267;21981;-76
2022/03/13 05:24:55;;;;;;;86.30;53.80;;;;;;;-2.14;51.13;101554.56;108853;1266;23155;-76
2022/03/13 05:27:31;;;;;;;;;;;;;;;-2.14;51.14;101556.29;108951;1267;23677;-76
2022/03/13 05:30:08;;;;;;;84.80;53.80;;;;;;;-2.17;51.33;101554.17;109438;1259;22961;-76
2022/03/13 05:32:47;;;;;;;98.80;57.30;;;;;;;-2.17;51.37;101556.25;109588;1260;23123;-76
2022/03/13 05:35:18;;;;;;;87.30;53.10;;;;;;;-2.13;51.42;101554.20;109226;1264;21969;-76
2022/03/13 05:37:51;;;;;;;81.90;53.10;;;;;;;-2.10;51.48;101554.24;109546;1263;22089;-75
2022/03/13 05:40:25;;;;;;;153.10;78.10;;;;;;;-2.06;51.53;101555.83;109167;1263;23609;-74
2022/03/13 05:42:58;;;;;;;328.40;196.10;;;;;;;-2.02;51.51;101554.46;109294;1264;22092;-78
2022/03/13 05:45:33;;;;;;;269.10;155.30;;;;;;;-1.99;51.39;101556.76;109236;1265;21976;-76
2022/03/13 05:48:17;;;;;;;218.90;130.60;;;;;;;-1.97;51.45;101557.91;108845;1270;22230;-76
2022/03/13 05:50:56;;;;;;;132.40;80.90;;;;;;;-1.93;51.46;101563.27;108432;1276;21999;-76
2022/03/13 05:53:39;;;;;;;112.90;70.10;;;;;;;-1.87;51.53;101562.05;108498;1272;22035;-75
2022/03/13 05:56:28;;;;;;;111.00;68.40;;;;;;;-1.84;51.53;101558.45;108474;1273;23774;-76
2022/03/13 05:59:01;;;;;;;107.30;66.50;;;;;;;-1.78;51.56;101559.95;108650;1273;22515;-75
2022/03/13 06:01:38;;;;;;;102.00;64.00;;;;;;;-1.73;51.50;101562.00;108503;1273;21984;-75
2022/03/13 06:04:11;;;;;;;93.40;59.50;;;;;;;-1.67;51.53;101557.95;108489;1273;22998;-77
2022/03/13 06:06:45;;;;;;;93.30;60.90;;;;;;;-1.60;51.49;101560.28;108777;1267;21984;-76
2022/03/13 06:09:27;;;;;;;92.60;60.30;;;;;;;-1.53;51.34;101557.23;109272;1260;23579;-75
2022/03/13 06:12:10;;;;;;;97.20;59.90;;;;;;;-1.45;51.18;101558.98;109627;1260;21934;-75
2022/03/13 06:14:45;;;;;;;86.20;56.10;;;;;;;-1.39;51.12;101562.20;109008;1267;22420;-76
2022/03/13 06:17:15;;;;;;;97.70;61.90;;;;;;;-1.31;51.04;101561.22;109218;1264;21975;-76
2022/03/13 06:19:56;;;;;;;91.20;59.30;;;;;;;-1.24;50.91;101559.86;109325;1264;22028;-76
2022/03/13 06:22:43;;;;;;;87.90;57.40;;;;;;;-1.15;50.77;101562.63;109185;1263;21990;-76
2022/03/13 06:25:20;;;;;;;73.40;52.00;;;;;;;-1.06;50.57;101561.39;108733;1270;23606;-76
2022/03/13 06:27:54;;;;;;;101.20;65.20;;;;;;;-0.97;50.49;101559.64;108686;1270;23068;-76
2022/03/13 06:30:29;;;;;;;87.20;57.20;;;;;;;-0.86;50.29;101553.96;108842;1270;21990;-75
2022/03/13 06:32:58;;;;;;;91.60;60.20;;;;;;;-0.75;50.16;101555.58;108677;1270;22021;-78
2022/03/13 06:35:32;;;;;;;142.00;84.40;;;;;;;-0.65;49.87;101556.52;108459;1276;23810;-76
2022/03/13 06:38:05;;;;;;;126.40;76.40;;;;;;;-0.54;49.74;101556.93;108260;1276;23080;-75
2022/03/13 06:40:37;;;;;;;102.40;65.50;;;;;;;-0.42;49.56;101559.18;108248;1278;22616;-75
2022/03/13 06:43:08;;;;;;;90.50;61.50;;;;;;;-0.29;49.41;101563.77;108168;1278;24493;-77
2022/03/13 06:45:47;;;;;;;85.90;57.10;;;;;;;-0.13;49.31;101567.06;107920;1283;22705;-76
2022/03/13 06:48:21;;;;;;;84.60;54.40;;;;;;;0.02;49.03;101569.32;107668;1284;22001;-76
2022/03/13 06:51:00;;;;;;;83.40;56.30;;;;;;;0.20;48.83;101569.70;108253;1278;21995;-76
2022/03/13 06:53:45;;;;;;;;;;;;;;;;;;;;;
2022/03/13 06:56:50;;;;;;;;;;;;;;;;;;;;;
2022/03/13 06:59:23;;;;;;;79.50;56.70;;;;;;;0.93;47.87;101572.95;108488;1273;22045;-77
2022/03/13 07:01:55;;;;;;;;;;;;;;;1.20;47.37;101576.09;108521;1273;22562;-77
2022/03/13 07:04:27;;;;;;;68.50;44.70;;;;;;;1.46;46.78;101575.81;108626;1265;22232;-77
2022/03/13 07:07:00;;;;;;;68.70;44.10;;;;;;;1.77;45.97;101578.02;109661;1262;21981;-76
2022/03/13 07:09:32;;;;;;;66.20;44.30;;;;;;;2.14;45.21;101581.45;109082;1265;23712;-76
2022/03/13 07:12:05;;;;;;;62.80;40.60;;;;;;;2.59;45.03;101577.70;108860;1267;23044;-77
2022/03/13 07:14:35;;;;;;;60.90;43.00;;;;;;;3.13;43.98;101577.77;108782;1270;23100;-76
2022/03/13 07:17:08;;;;;;;74.20;51.50;;;;;;;3.59;42.66;101576.77;108804;1270;22039;-76
2022/03/13 07:19:48;;;;;;;60.80;42.50;;;;;;;4.07;41.79;101580.59;108913;1269;21997;-77
2022/03/13 07:22:26;;;;;;;60.70;38.70;;;;;;;4.56;40.30;101578.01;108614;1273;22111;-77
2022/03/13 07:25:11;;;;;;;54.60;40.50;;;;;;;4.94;38.95;101577.65;108697;1273;23687;-77
2022/03/13 07:27:45;;;;;;;53.90;38.90;;;;;;;5.30;38.01;101574.38;108790;1270;23694;-77
2022/03/13 07:30:15;;;;;;;55.20;40.20;;;;;;;5.68;37.58;101575.45;108974;1268;22152;-77
2022/03/13 07:32:50;;;;;;;50.90;35.10;;;;;;;6.02;36.56;101581.48;109139;1263;21983;-77
2022/03/13 07:35:26;;;;;;;46.80;33.60;;;;;;;6.30;35.57;101582.52;108892;1270;23074;-76
2022/03/13 07:37:56;;;;;;;51.00;36.10;;;;;;;6.60;35.15;101582.64;108886;1270;22424;-78
2022/03/13 07:40:30;;;;;;;46.20;35.20;;;;;;;6.90;34.64;101586.90;108945;1265;21976;-78
2022/03/13 07:43:13;;;;;;;48.80;35.20;;;;;;;7.16;33.71;101587.90;109078;1265;24142;-77
2022/03/13 07:45:45;;;;;;;49.10;33.40;;;;;;;7.39;32.85;101584.92;109196;1264;22112;-77
2022/03/13 07:48:39;;;;;;;47.80;33.90;;;;;;;7.58;32.48;101586.47;109235;1264;22444;-78
2022/03/13 07:51:22;;;;;;;46.30;34.40;;;;;;;7.77;31.84;101583.92;109198;1264;21985;-77
2022/03/13 07:53:57;;;;;;;47.50;35.80;;;;;;;7.91;31.40;101583.20;109709;1260;23645;-77
2022/03/13 07:56:39;;;;;;;46.40;35.00;;;;;;;8.07;30.86;101581.78;109198;1264;21991;-76
2022/03/13 07:59:10;;;;;;;47.50;36.30;;;;;;;8.36;31.21;101581.34;109160;1267;22063;-77
2022/03/13 08:01:50;;;;;;;50.30;35.40;;;;;;;8.66;31.10;101581.09;109211;1266;21980;-77
2022/03/13 08:04:19;;;;;;;46.20;33.20;;;;;;;8.98;30.72;101577.56;109092;1267;22985;-80
2022/03/13 08:06:50;;;;;;;42.30;33.00;;;;;;;9.23;30.31;101581.43;109199;1264;23774;-77
2022/03/13 08:09:41;;;;;;;;;;;;;;;;;;;;;
2022/03/13 08:12:15;;;;;;;41.40;29.60;;;;;;;10.05;30.03;101580.73;109137;1264;22748;-76
2022/03/13 08:14:52;;;;;;;47.60;27.90;;;;;;;10.54;29.84;101580.32;109430;1261;22988;-78
2022/03/13 08:17:24;;;;;;;35.00;26.70;;;;;;;11.10;28.98;101584.95;109980;1260;22436;-76
2022/03/13 08:19:56;;;;;;;36.10;26.00;;;;;;;11.42;27.65;101582.30;109988;1260;22337;-76
2022/03/13 08:22:37;;;;;;;49.80;26.60;;;;;;;11.50;26.65;101579.10;109834;1259;23025;-76
2022/03/13 08:25:15;;;;;;;32.80;26.80;;;;;;;11.63;26.52;101578.61;109836;1259;23029;-77
2022/03/13 08:28:17;;;;;;;129.50;87.50;;;;;;;11.79;25.50;101578.45;109983;1258;21984;-79
2022/03/13 08:31:03;;;;;;;275.50;189.50;;;;;;;11.66;24.71;101573.48;109986;1259;21975;-77
2022/03/13 08:33:43;;;;;;;74.30;55.20;;;;;;;11.70;24.63;101572.40;109387;1263;23691;-77
2022/03/13 08:36:14;;;;;;;39.50;29.30;;;;;;;11.89;25.00;101574.16;109316;1264;21981;-77
2022/03/13 08:38:52;;;;;;;38.60;28.50;;;;;;;12.21;24.92;101576.20;108870;1270;21979;-77
2022/03/13 08:41:22;;;;;;;43.70;35.50;;;;;;;12.46;24.08;101579.64;108967;1267;22001;-78
2022/03/13 08:43:52;;;;;;;32.40;25.10;;;;;;;12.41;23.42;101580.35;108765;1270;23623;-77
2022/03/13 08:46:23;;;;;;;32.60;24.70;;;;;;;12.16;22.84;101578.83;108948;1268;22092;-77
2022/03/13 08:48:52;;;;;;;34.60;26.40;;;;;;;11.87;22.98;101575.30;108498;1273;21997;-77
2022/03/13 08:51:23;;;;;;;37.00;27.70;;;;;;;12.05;23.91;101571.23;108674;1273;23375;-78
2022/03/13 08:53:56;;;;;;;32.30;26.70;;;;;;;12.39;23.47;101573.94;108720;1272;23603;-78
2022/03/13 08:56:28;;;;;;;37.10;28.40;;;;;;;12.59;23.00;101577.52;108628;1267;21983;-77
2022/03/13 08:59:05;;;;;;;38.60;30.20;;;;;;;12.59;22.68;101575.69;109133;1267;23802;-77
2022/03/13 09:01:35;;;;;;;42.10;33.70;;;;;;;12.54;22.63;101580.45;109192;1267;22789;-77
2022/03/13 09:04:08;;;;;;;43.60;35.20;;;;;;;12.48;22.74;101579.43;109109;1267;23061;-76
2022/03/13 09:06:39;;;;;;;51.10;36.70;;;;;;;12.49;22.93;101578.19;109186;1260;22211;-77
2022/03/13 09:09:13;;;;;;;39.40;31.50;;;;;;;12.55;23.19;101575.23;109853;1259;23711;-77
2022/03/13 09:11:42;;;;;;;37.60;32.50;;;;;;;12.69;23.12;101570.33;109176;1267;21976;-77
2022/03/13 09:14:18;;;;;;;41.00;32.80;;;;;;;12.95;23.10;101571.64;108978;1267;21969;-77
2022/03/13 09:16:52;;;;;;;43.10;34.80;;;;;;;13.13;22.99;101569.82;108899;1270;23617;-76
2022/03/13 09:19:25;;;;;;;41.80;35.10;;;;;;;13.28;22.64;101568.86;108454;1276;22464;-76
2022/03/13 09:21:59;;;;;;;43.10;35.80;;;;;;;13.51;22.77;101576.74;108477;1276;22372;-76
2022/03/13 09:24:34;;;;;;;37.30;30.40;;;;;;;13.76;22.77;101579.98;108382;1276;22935;-78
2022/03/13 09:27:09;;;;;;;39.50;32.10;;;;;;;13.71;21.76;101580.86;108547;1276;22634;-76
2022/03/13 09:29:43;;;;;;;46.40;35.70;;;;;;;13.33;22.10;101576.67;108456;1276;22031;-76
2022/03/13 09:32:15;;;;;;;;;;;;;;;13.40;22.53;101579.49;108443;1276;21988;-77
2022/03/13 09:34:46;;;;;;;32.80;26.60;;;;;;;13.15;22.00;101578.26;108518;1273;22024;-77
2022/03/13 09:37:16;;;;;;;34.10;25.10;;;;;;;13.04;22.55;101576.05;109273;1259;22030;-77
2022/03/13 09:40:09;;;;;;;31.00;25.50;;;;;;;12.93;22.41;101571.83;109881;1259;21964;-77
2022/03/13 09:42:39;;;;;;;42.60;29.70;;;;;;;12.96;22.46;101570.48;110252;1258;22013;-77
2022/03/13 09:45:09;;;;;;;39.60;26.40;;;;;;;12.89;22.02;101569.70;109692;1259;23650;-76
2022/03/13 09:47:38;;;;;;;32.30;26.40;;;;;;;12.84;21.91;101566.32;109989;1259;23022;-75
2022/03/13 09:50:12;;;;;;;31.50;23.90;;;;;;;12.89;22.00;101566.59;109956;1259;22041;-76
2022/03/13 09:52:42;;;;;;;30.30;25.10;;;;;;;12.89;21.97;101565.49;109223;1267;22100;-75
2022/03/13 09:55:14;;;;;;;33.40;25.30;;;;;;;12.87;21.98;101561.83;109306;1266;21985;-76
2022/03/13 09:57:46;;;;;;;30.10;22.90;;;;;;;12.87;21.94;101560.10;109344;1264;22436;-76
2022/03/13 10:00:20;;;;;;;27.90;22.20;;;;;;;12.82;21.57;101566.22;109222;1265;23699;-76
2022/03/13 10:02:53;;;;;;;38.30;24.10;;;;;;;12.71;21.75;101560.04;109222;1267;22443;-77
2022/03/13 10:05:26;;;;;;;32.80;24.00;;;;;;;12.83;21.96;101554.77;109162;1266;22420;-76
2022/03/13 10:08:02;;;;;;;30.90;23.50;;;;;;;13.14;21.94;101547.04;109281;1264;21988;-77
2022/03/13 10:10:47;;;;;;;29.20;22.90;;;;;;;13.49;21.68;101548.09;109123;1259;25228;-76
2022/03/13 10:13:46;;;;;;;31.00;24.40;;;;;;;13.86;21.30;101546.27;109999;1259;23624;-76
2022/03/13 10:16:19;;;;;;;26.80;22.30;;;;;;;14.33;21.31;101546.74;109993;1259;23810;-75
2022/03/13 10:18:51;;;;;;;27.40;23.00;;;;;;;15.03;21.01;101545.48;109894;1259;21987;-74
2022/03/13 10:21:20;;;;;;;25.90;21.10;;;;;;;15.73;20.40;101543.00;109288;1264;23731;-77
2022/03/13 10:23:52;;;;;;;27.70;22.90;;;;;;;16.46;19.84;101546.98;109272;1264;21969;-76
2022/03/13 10:26:31;;;;;;;28.60;24.40;;;;;;;16.99;19.09;101545.50;109344;1264;22998;-77
2022/03/13 10:29:02;;;;;;;25.40;21.90;;;;;;;17.52;18.53;101546.63;109440;1264;23155;-76
2022/03/13 10:31:31;;;;;;;25.40;20.50;;;;;;;17.99;17.94;101546.83;108750;1270;23599;-76
2022/03/13 10:34:00;;;;;;;25.20;22.10;;;;;;;18.36;17.19;101546.62;108818;1270;23767;-76
2022/03/13 10:36:34;;;;;;;29.20;26.20;;;;;;;18.48;16.61;101538.85;108850;1270;21985;-77
2022/03/13 10:39:18;;;;;;;27.50;23.50;;;;;;;18.92;17.20;101538.87;108938;1267;21978;-75
2022/03/13 10:41:56;;;;;;;26.40;23.60;;;;;;;19.59;16.77;101539.94;108902;1267;23049;-77
2022/03/13 10:44:27;;;;;;;25.50;21.80;;;;;;;19.89;16.15;101539.17;108682;1273;21993;-76
2022/03/13 10:47:05;;;;;;;28.30;22.80;;;;;;;20.06;16.00;101533.74;108494;1273;22508;-76
2022/03/13 10:49:48;;;;;;;24.50;20.20;;;;;;;20.31;15.38;101534.73;108728;1265;21994;-75
2022/03/13 10:52:31;;;;;;;28.90;25.80;;;;;;;20.48;15.35;101533.40;109234;1263;21993;-76
2022/03/13 10:55:24;;;;;;;26.70;21.70;;;;;;;21.00;15.35;101532.23;109291;1264;21981;-76
2022/03/13 10:57:58;;;;;;;28.40;23.90;;;;;;;21.35;14.84;101526.91;109276;1265;23015;-76
2022/03/13 11:00:30;;;;;;;23.00;20.20;;;;;;;21.66;14.29;101527.54;108967;1268;22063;-75
2022/03/13 11:03:14;;;;;;;21.10;18.90;;;;;;;21.90;13.99;101531.50;109360;1263;23108;-77
2022/03/13 11:05:49;;;;;;;21.80;19.50;;;;;;;22.15;13.71;101532.88;109305;1264;21973;-77
2022/03/13 11:08:20;;;;;;;22.80;20.10;;;;;;;22.18;13.42;101523.18;109312;1264;21988;-78
2022/03/13 11:10:50;;;;;;;23.20;19.10;;;;;;;22.08;13.24;101524.04;109335;1263;21999;-76
2022/03/13 11:13:22;;;;;;;;;;;;;;;21.23;13.10;101521.94;109343;1263;23050;-76
2022/03/13 11:15:55;;;;;;;31.20;26.20;;;;;;;20.12;13.74;101518.63;109525;1264;23708;-77
2022/03/13 11:18:38;;;;;;;26.30;22.70;;;;;;;18.76;13.85;101521.60;109535;1259;23113;-76
2022/03/13 11:21:08;;;;;;;30.30;21.70;;;;;;;17.31;14.68;101514.92;109587;1262;22869;-77
2022/03/13 11:23:38;;;;;;;26.10;19.90;;;;;;;16.24;15.44;101514.67;109250;1262;23666;-75
2022/03/13 11:26:07;;;;;;;25.60;19.60;;;;;;;15.28;15.79;101514.62;108935;1267;22004;-76
2022/03/13 11:28:38;;;;;;;22.20;17.90;;;;;;;14.23;16.19;101515.71;108874;1267;21969;-75
2022/03/13 11:31:34;;;;;;;22.30;17.80;;;;;;;13.22;16.77;101509.78;109108;1267;22273;-74
2022/03/13 11:34:17;;;;;;;19.70;15.70;;;;;;;12.40;17.50;101516.10;108920;1270;23113;-75
2022/03/13 11:36:51;;;;;;;21.70;17.40;;;;;;;11.83;17.93;101519.35;109129;1268;23081;-76
2022/03/13 11:39:30;;;;;;;21.20;15.90;;;;;;;11.38;18.24;101509.00;109233;1264;23045;-76
2022/03/13 11:42:01;;;;;;;17.60;14.50;;;;;;;11.03;18.73;101509.91;109408;1265;21973;-77
2022/03/13 11:44:32;;;;;;;15.10;11.20;;;;;;;10.83;19.06;101504.08;109050;1264;22042;-76
2022/03/13 11:47:20;;;;;;;16.80;10.20;;;;;;;10.64;18.75;101512.83;109366;1264;21996;-76